Cape Endless — V7WB3 — position and weather

sailwx.info

Track history (hours):
 
Tides and Currents Weather Stations Pressure Air Temp Water Temp Dewpoint Dewpoint Depression Visibility Wind Speed Wind Dir Waves Ship Positions

Cape Endless

Last reported at 2015-Mar-30 09:07 UTC. Time now 2015-Apr-18 11:38 UTC.
Position N 01°16' E 104°12'.
Warning: this ship's position is 19 days out of date.

Length 243 m; draft 10.3 m.

Type: Ship. MMSI: 538006185.

Date/timePositionNaut miles runAvg speedWind from/ knotsBaromVisibWave heightAir tempDewpointWater temp
2015-Mar-30 09:07N 01°16' E 104°12'610.2
2015-Mar-30 08:33N 01°15' E 104°06'9 8.7
2015-Mar-30 07:33N 01°14' E 103°57'3 2.4
2015-Mar-30 06:19N 01°16' E 103°55'0 0.1
2015-Mar-30 05:25N 01°16' E 103°55'0 0.0
2015-Mar-30 04:31N 01°16' E 103°55'0 0.1
2015-Mar-30 03:07N 01°16' E 103°55'0 0.1
2015-Mar-30 02:31N 01°16' E 103°55'0 0.1
2015-Mar-30 01:22N 01°16' E 103°55'0 0.1
2015-Mar-30 00:19N 01°16' E 103°55'0 0.1
2015-Mar-29 23:31N 01°16' E 103°55'0 0.1
2015-Mar-29 22:31N 01°16' E 103°55'0 0.0
2015-Mar-29 21:25N 01°16' E 103°55'0 0.0
2015-Mar-29 20:31N 01°16' E 103°55'0 0.0
2015-Mar-29 19:25N 01°16' E 103°55'0 0.0
2015-Mar-29 18:19N 01°16' E 103°55'0 0.1
2015-Mar-29 17:25N 01°16' E 103°55'1 1.7
2015-Mar-29 16:33N 01°16' E 103°57'2 2.5
2015-Mar-29 15:33N 01°13' E 103°56'8911.0
2015-Mar-29 07:25N 01°45' E 102°32'4 0.1
2015-Mar-27 13:21N 01°49' E 102°32'1012.0
2015-Mar-27 12:33N 01°46' E 102°41'1312.1
2015-Mar-27 11:29N 01°40' E 102°53'6911.6
2015-Mar-27 05:33N 01°14' E 103°56'1110.6
2015-Mar-27 04:32N 01°16' E 104°07'  
Track history (hours):
 
Tides and Currents Weather Stations Pressure Air Temp Water Temp Dewpoint Dewpoint Depression Visibility Wind Speed Wind Dir Waves Ship Positions

Cape Endless

Last reported at 2015-Mar-30 09:07 UTC. Time now 2015-Apr-18 11:38 UTC.
Position N 01°16' E 104°12'.
Warning: this ship's position is 19 days out of date.

Length 243 m; draft 10.3 m.

Type: Ship. MMSI: 538006185.

Date/timePositionNaut miles runAvg speedWind from/ knotsBaromVisibWave heightAir tempDewpointWater temp
2015-Mar-30 09:07N 01°16' E 104°12'610.2
2015-Mar-30 08:33N 01°15' E 104°06'9 8.7
2015-Mar-30 07:33N 01°14' E 103°57'3 2.4
2015-Mar-30 06:19N 01°16' E 103°55'0 0.1
2015-Mar-30 05:25N 01°16' E 103°55'0 0.0
2015-Mar-30 04:31N 01°16' E 103°55'0 0.1
2015-Mar-30 03:07N 01°16' E 103°55'0 0.1
2015-Mar-30 02:31N 01°16' E 103°55'0 0.1
2015-Mar-30 01:22N 01°16' E 103°55'0 0.1
2015-Mar-30 00:19N 01°16' E 103°55'0 0.1
2015-Mar-29 23:31N 01°16' E 103°55'0 0.1
2015-Mar-29 22:31N 01°16' E 103°55'0 0.0
2015-Mar-29 21:25N 01°16' E 103°55'0 0.0
2015-Mar-29 20:31N 01°16' E 103°55'0 0.0
2015-Mar-29 19:25N 01°16' E 103°55'0 0.0
2015-Mar-29 18:19N 01°16' E 103°55'0 0.1
2015-Mar-29 17:25N 01°16' E 103°55'1 1.7
2015-Mar-29 16:33N 01°16' E 103°57'2 2.5
2015-Mar-29 15:33N 01°13' E 103°56'8911.0
2015-Mar-29 07:25N 01°45' E 102°32'4 0.1
2015-Mar-27 13:21N 01°49' E 102°32'1012.0
2015-Mar-27 12:33N 01°46' E 102°41'1312.1
2015-Mar-27 11:29N 01°40' E 102°53'6911.6
2015-Mar-27 05:33N 01°14' E 103°56'1110.6
2015-Mar-27 04:32N 01°16' E 104°07'  

Dump ship's entire track history